»·PEaware :: FFT2122 KSNA-KLAS

FFT2122 :: KSNA-KLAS

FLIGHT INFORMATION

Flight Status: Arrived
Operator:
Frontier Airlines
More flights by this operator :: More flights under this callsign
Pilot: Anonymous 30951 (30951)
Aircraft: AIRBUS A320
(A320)
More flights by this aircraft type
Origin: KSNA John Wayne-Orange Co
United States
Destination: KLAS McCarran Intl
United States
More flights between these airports :: More routes between these airports
Route: FINZZ2 MISEN KEPEC6
File this flight plan on PilotEdge
Remarks:
Altitude:
(Current/Filed)
29,000ft
Speed:
(Current/Filed)
464kts
Departed: 13-Sep-20 08:07 AM
Arrived: 13-Sep-20 08:53 AM
Distance/Time
Traveled:
197nm/0:46
Distance/Time
To Go:
Arrived

Flight Plot

Page will automatically refresh every two minutes.

Flight plan parsing failed; only flown route is shown


Map Options




Map Legend


Flown Route
Filed Route
Departure Airport
Arrival Airport
Navaid (VOR, NDB)
Fix

Horizontal Profiles

Position Reports

Time Latitude Longitude Heading Altitude Ground
Speed
13-Sep-20 07:34 33.677525 -117.863407 0 65ft 0kts
13-Sep-20 07:34 33.677525 -117.863407 118 65ft 0kts
13-Sep-20 07:36 33.677525 -117.863407 118 65ft 0kts
13-Sep-20 07:36 33.677525 -117.863407 118 65ft 0kts
13-Sep-20 07:37 33.677525 -117.863407 118 65ft 0kts
13-Sep-20 07:39 33.677525 -117.863407 118 65ft 0kts
13-Sep-20 07:39 33.677525 -117.863407 118 65ft 0kts
13-Sep-20 07:40 33.677525 -117.863407 118 65ft 0kts
13-Sep-20 07:42 33.677525 -117.863407 118 65ft 0kts
13-Sep-20 07:42 33.677525 -117.863407 118 65ft 0kts
13-Sep-20 07:43 33.677525 -117.863407 118 65ft 0kts
13-Sep-20 07:44 33.677525 -117.863407 118 65ft 0kts
13-Sep-20 07:45 33.677525 -117.863407 118 65ft 0kts
13-Sep-20 07:46 33.677525 -117.863407 118 65ft 0kts
13-Sep-20 07:47 33.677525 -117.863407 118 65ft 0kts
13-Sep-20 07:48 33.677525 -117.863407 118 65ft 0kts
13-Sep-20 07:49 33.677525 -117.863407 118 65ft 0kts
13-Sep-20 07:50 33.677525 -117.863407 118 65ft 0kts
13-Sep-20 07:51 33.677525 -117.863407 118 65ft 0kts
13-Sep-20 07:52 33.677525 -117.863407 118 65ft 0kts
13-Sep-20 07:53 33.677525 -117.863407 118 65ft 0kts
13-Sep-20 07:54 33.677525 -117.863407 118 65ft 0kts
13-Sep-20 07:55 33.677671 -117.863732 118 65ft 2kts
13-Sep-20 07:56 33.677611 -117.864264 29 65ft 0kts
13-Sep-20 07:57 33.677549 -117.864300 27 65ft 0kts
13-Sep-20 07:58 33.677549 -117.864300 27 65ft 0kts
13-Sep-20 07:59 33.677549 -117.864300 27 65ft 0kts
13-Sep-20 08:00 33.677549 -117.864300 27 65ft 0kts
13-Sep-20 08:01 33.678187 -117.863886 28 65ft 13kts
13-Sep-20 08:02 33.680609 -117.862987 295 65ft 0kts
13-Sep-20 08:03 33.680609 -117.862987 295 65ft 0kts
13-Sep-20 08:04 33.680616 -117.863003 295 65ft 1kts
13-Sep-20 08:05 33.681430 -117.865179 209 65ft 0kts
13-Sep-20 08:06 33.661343 -117.878015 208 947ft 164kts
13-Sep-20 08:07 33.611610 -117.894396 185 3649ft 235kts
13-Sep-20 08:08 33.546182 -117.926965 222 7212ft 278kts
13-Sep-20 08:09 33.492954 -117.996604 255 8411ft 302kts
13-Sep-20 08:10 33.537901 -118.078704 316 11059ft 333kts
13-Sep-20 08:11 33.627333 -118.108692 23 13339ft 372kts
13-Sep-20 08:12 33.720458 -118.053411 26 16172ft 384kts
13-Sep-20 08:13 33.816294 -117.997400 26 18090ft 395kts
13-Sep-20 08:14 33.914384 -117.937083 33 20379ft 407kts
13-Sep-20 08:15 34.006114 -117.853495 35 22386ft 419kts
13-Sep-20 08:16 34.098035 -117.764181 45 24186ft 434kts
13-Sep-20 08:17 34.175472 -117.649724 47 25841ft 446kts
13-Sep-20 08:18 34.254448 -117.532277 47 27355ft 455kts
13-Sep-20 08:19 34.334934 -117.412164 47 28741ft 464kts
13-Sep-20 08:20 34.415810 -117.291063 48 29137ft 461kts
13-Sep-20 08:21 34.496607 -117.169654 48 29138ft 462kts
13-Sep-20 08:22 34.577738 -117.049015 47 29153ft 461kts
13-Sep-20 08:23 34.659816 -116.929629 47 29174ft 459kts
13-Sep-20 08:24 34.741181 -116.810628 47 29170ft 458kts
13-Sep-20 08:25 34.822569 -116.691168 47 29116ft 458kts
13-Sep-20 08:26 34.914528 -116.586264 35 29094ft 454kts
13-Sep-20 08:27 35.013706 -116.490093 36 29087ft 454kts
13-Sep-20 08:28 35.110940 -116.392844 41 28139ft 449kts
13-Sep-20 08:29 35.196865 -116.285539 45 25742ft 434kts
13-Sep-20 08:30 35.279641 -116.181632 45 23371ft 419kts
13-Sep-20 08:31 35.359056 -116.081614 46 21025ft 403kts
13-Sep-20 08:32 35.435838 -115.984617 46 18697ft 388kts
13-Sep-20 08:33 35.509489 -115.891310 46 16458ft 373kts
13-Sep-20 08:34 35.580188 -115.801495 47 14256ft 359kts
13-Sep-20 08:35 35.645814 -115.717973 47 13269ft 315kts
13-Sep-20 08:36 35.704180 -115.643433 47 13010ft 302kts
13-Sep-20 08:37 35.766914 -115.576210 15 13013ft 309kts
13-Sep-20 08:38 35.852888 -115.570026 4 13010ft 310kts
13-Sep-20 08:39 35.939305 -115.565241 6 13009ft 310kts
13-Sep-20 08:40 35.992763 -115.495384 69 12353ft 295kts
13-Sep-20 08:41 36.022276 -115.402779 69 11152ft 275kts
13-Sep-20 08:42 36.026669 -115.314772 95 10303ft 256kts
13-Sep-20 08:43 36.020396 -115.228257 95 9304ft 251kts
13-Sep-20 08:44 36.014437 -115.142564 95 8220ft 247kts
13-Sep-20 08:45 36.009040 -115.061426 94 7426ft 233kts
13-Sep-20 08:46 36.004418 -114.985103 94 6769ft 204kts
13-Sep-20 08:47 36.035412 -114.945249 355 5425ft 192kts
13-Sep-20 08:48 36.073032 -114.983606 277 4052ft 188kts
13-Sep-20 08:49 36.073687 -115.046029 270 3391ft 155kts
13-Sep-20 08:50 36.073687 -115.095139 270 2609ft 143kts
13-Sep-20 08:51 36.073658 -115.138088 270 2082ft 52kts
13-Sep-20 08:52 36.075587 -115.146563 359 2106ft 8kts
13-Sep-20 08:53 36.078565 -115.146332 104 2100ft 6kts
13-Sep-20 08:54 36.079176 -115.141539 21 2084ft 21kts
13-Sep-20 08:55 36.084293 -115.140697 45 2069ft 14kts
13-Sep-20 08:56 36.083801 -115.138063 138 2062ft 5kts
13-Sep-20 08:57 36.082738 -115.136798 135 2061ft 0kts

Navigation Log

Ident Type
Flight plan parsing failed, navigation log unavailable